Time;durP1;ratioP1;P1;durP2;ratioP2;P2;SDS_P1;SDS_P2;PMS_P1;PMS_P2;Temp;Humidity;BMP_temperature;BMP_pressure;BME280_temperature;BME280_humidity;BME280_pressure;Samples;Min_cycle;Max_cycle;Signal;HPM_P1;HPM_P2
2021/03/24 00:01:24;;;;;;;11.70;7.50;;;-0.30;99.90;;;-0.02;41.73;94878.13;5004303;28;20192;-80
2021/03/24 00:04:01;;;;;;;11.97;6.83;;;-0.50;99.90;;;-0.16;41.84;94886.69;5020647;28;20211;-80
2021/03/24 00:06:37;;;;;;;12.27;7.90;;;-0.60;99.90;;;-0.33;41.86;94886.97;4988606;28;20638;-80
2021/03/24 00:09:15;;;;;;;14.10;7.70;;;-0.70;99.90;;;-0.17;41.95;94903.31;5037290;28;20631;-80
2021/03/24 00:11:55;;;;;;;11.67;7.50;;;-0.70;99.90;;;-0.03;41.99;94884.31;5020515;28;20192;-80
2021/03/24 00:14:31;;;;;;;12.63;7.40;;;-0.50;99.90;;;-0.05;41.94;94878.47;5005151;28;20900;-81
2021/03/24 00:17:04;;;;;;;11.00;7.40;;;-0.50;99.90;;;-0.04;42.21;94895.75;5023842;28;20298;-80
2021/03/24 00:19:31;;;;;;;12.03;7.47;;;-0.60;99.90;;;-0.13;42.54;94888.13;5035588;28;20662;-80
2021/03/24 00:22:25;;;;;;;11.07;7.10;;;-0.50;99.90;;;-0.07;42.17;94901.28;5019572;28;20188;-80
2021/03/24 00:24:53;;;;;;;14.77;6.97;;;-0.60;99.90;;;-0.12;42.23;94895.78;4978612;28;20206;-81
2021/03/24 00:27:21;;;;;;;12.03;7.30;;;-0.70;99.90;;;0.00;42.16;94893.59;4981330;28;20285;-80
2021/03/24 00:30:04;;;;;;;12.27;7.60;;;-0.60;99.90;;;-0.01;42.65;94887.56;4981031;28;20198;-81
2021/03/24 00:32:32;;;;;;;14.60;7.67;;;-0.60;99.90;;;-0.05;42.34;94901.09;4981092;28;20186;-81
2021/03/24 00:35:04;;;;;;;14.90;8.10;;;-0.60;99.90;;;-0.04;42.91;94889.72;4980936;28;20373;-80
2021/03/24 00:37:39;;;;;;;13.53;7.90;;;-0.70;99.90;;;-0.20;42.40;94892.44;4972086;28;20181;-81
2021/03/24 00:40:42;;;;;;;11.27;7.50;;;-0.70;99.90;;;-0.20;42.72;94898.44;4964896;28;20202;-81
2021/03/24 00:43:23;;;;;;;12.87;6.93;;;-0.80;99.90;;;-0.12;42.95;94901.00;4865582;29;20197;-81
2021/03/24 00:45:49;;;;;;;15.43;7.60;;;-0.70;99.90;;;-0.18;43.10;94887.88;4881176;29;20259;-81
2021/03/24 00:48:26;;;;;;;10.83;6.63;;;-0.70;99.90;;;-0.09;42.99;94894.63;4852565;29;20213;-80
2021/03/24 00:50:53;;;;;;;11.70;7.13;;;-0.70;99.90;;;-0.14;42.39;94891.75;4866424;29;20191;-81
2021/03/24 00:53:31;;;;;;;13.70;7.13;;;-0.70;99.90;;;-0.35;43.45;94883.75;4866358;29;20671;-81
2021/03/24 00:56:10;;;;;;;14.37;7.33;;;-0.80;99.90;;;-0.44;43.25;94901.22;4874361;29;20203;-80
2021/03/24 00:58:48;;;;;;;11.70;7.10;;;-0.90;99.90;;;-0.38;43.06;94881.50;4855805;29;20243;-81
2021/03/24 01:01:18;;;;;;;13.70;7.53;;;-0.80;99.90;;;-0.26;42.96;94887.91;4881265;29;20676;-81
2021/03/24 01:03:45;;;;;;;12.63;7.73;;;-0.80;99.90;;;-0.16;43.31;94883.28;4888934;29;20204;-81
2021/03/24 01:06:32;;;;;;;12.03;6.80;;;-0.70;99.90;;;-0.24;43.39;94883.34;4920028;29;20281;-80
2021/03/24 01:09:00;;;;;;;12.13;7.17;;;-0.80;99.90;;;-0.16;43.62;94888.50;4905041;29;20188;-80
2021/03/24 01:11:42;;;;;;;14.20;7.47;;;-0.80;99.90;;;-0.23;43.55;94877.13;4920530;29;20180;-81
2021/03/24 01:14:40;;;;;;;14.17;7.73;;;-0.80;99.90;;;-0.34;43.84;94878.38;4888624;29;20684;-81
2021/03/24 01:17:17;;;;;;;12.87;7.20;;;-0.80;99.90;;;-0.43;43.48;94865.56;4863554;29;20200;-80
2021/03/24 01:20:03;;;;;;;11.87;7.00;;;-0.90;99.90;;;-0.46;43.87;94877.16;4923491;29;20195;-81
2021/03/24 01:22:40;;;;;;;11.37;7.10;;;-1.00;99.90;;;-0.52;43.45;94870.84;4943154;29;20292;-80
2021/03/24 01:25:07;;;;;;;13.23;7.13;;;-1.00;99.90;;;-0.49;43.89;94879.28;4958470;28;20177;-80
2021/03/24 01:27:35;;;;;;;14.27;7.07;;;-1.00;99.90;;;-0.50;44.00;94870.66;4993744;28;20247;-81
2021/03/24 01:30:26;;;;;;;13.97;6.87;;;-1.00;99.90;;;-0.52;44.19;94877.84;4960997;28;20644;-81
2021/03/24 01:32:52;;;;;;;11.27;7.00;;;-1.10;99.90;;;-0.52;44.04;94870.84;4963773;28;20198;-81
2021/03/24 01:35:20;;;;;;;12.33;7.37;;;-1.00;99.90;;;-0.48;44.10;94884.34;4981320;28;20220;-81
2021/03/24 01:37:47;;;;;;;11.80;6.40;;;-1.00;99.90;;;-0.52;43.89;94878.66;4930262;29;20184;-80
2021/03/24 01:40:32;;;;;;;12.40;7.10;;;-1.00;99.90;;;-0.55;43.98;94888.59;4959993;28;20191;-81
2021/03/24 01:43:34;;;;;;;9.40;6.60;;;-1.10;99.90;;;-0.55;44.09;94871.19;4981408;28;20182;-81
2021/03/24 01:46:35;;;;;;;10.73;6.63;;;-1.10;99.90;;;-0.54;44.41;94887.63;4942969;29;20219;-81
2021/03/24 01:49:39;;;;;;;11.10;6.77;;;-1.10;99.90;;;-0.67;44.33;94877.75;4924775;29;20220;-81
2021/03/24 01:52:09;;;;;;;11.73;7.30;;;-1.20;99.90;;;-0.71;44.44;94880.91;4905850;29;20219;-81
2021/03/24 01:55:05;;;;;;;10.23;6.40;;;-1.20;99.90;;;-0.70;44.74;94890.31;4884469;29;20228;-81
2021/03/24 01:57:45;;;;;;;12.03;6.97;;;-1.30;99.90;;;-0.72;44.26;94881.88;4905125;29;20689;-81
2021/03/24 02:00:39;;;;;;;16.37;9.80;;;-1.40;99.90;;;-0.65;44.63;94875.81;4889810;29;20174;-81
2021/03/24 02:03:17;;;;;;;15.27;8.20;;;-1.30;99.90;;;-0.67;44.88;94866.56;4902598;29;20245;-81
2021/03/24 02:06:03;;;;;;;12.83;7.30;;;-1.30;99.90;;;-0.62;44.62;94877.25;4893146;29;20207;-81
2021/03/24 02:08:34;;;;;;;14.33;8.43;;;-1.20;99.90;;;-0.60;44.92;94868.28;4908105;29;20194;-80
2021/03/24 02:11:14;;;;;;;14.53;8.70;;;-1.20;99.90;;;-0.63;44.84;94876.44;4907420;29;20182;-80
2021/03/24 02:14:11;;;;;;;14.40;8.33;;;-1.20;99.90;;;-0.73;45.18;94877.63;4897799;29;20247;-81
2021/03/24 02:16:56;;;;;;;14.33;7.73;;;-1.30;99.90;;;-0.84;45.13;94878.06;4904527;29;20216;-81
2021/03/24 02:20:07;;;;;;;12.53;7.57;;;-1.30;99.90;;;-0.95;44.86;94871.44;4908336;29;20196;-81
2021/03/24 02:22:42;;;;;;;12.77;7.47;;;-1.40;99.90;;;-1.06;44.93;94869.19;4908731;29;20219;-81
2021/03/24 02:25:28;;;;;;;11.03;6.47;;;-1.50;99.90;;;-1.12;44.95;94878.50;4897057;29;20283;-81
2021/03/24 02:27:58;;;;;;;14.00;7.87;;;-1.50;99.90;;;-1.01;45.02;94877.31;4907104;29;20692;-81
2021/03/24 02:30:49;;;;;;;11.97;6.97;;;-1.50;99.90;;;-1.07;45.23;94888.38;4907469;29;20278;-81
2021/03/24 02:33:37;;;;;;;9.77;6.53;;;-1.60;99.90;;;-1.07;45.10;94888.38;4936069;28;20202;-81
2021/03/24 02:36:20;;;;;;;10.70;6.87;;;-1.60;99.90;;;-1.12;45.31;94878.50;4969002;28;20226;-81
2021/03/24 02:39:07;;;;;;;11.00;6.30;;;-1.40;99.90;;;-1.12;45.72;94881.09;4980198;28;20273;-81
2021/03/24 02:41:38;;;;;;;11.37;6.47;;;-1.60;99.90;;;-1.05;45.32;94889.84;5042012;28;20181;-81
2021/03/24 02:44:32;;;;;;;11.47;7.07;;;-1.60;99.90;;;-1.08;45.86;94899.78;5070340;28;20272;-81
2021/03/24 02:47:04;;;;;;;10.73;6.67;;;-1.60;99.90;;;-1.14;45.41;94882.22;5060603;28;20193;-81
2021/03/24 02:49:31;;;;;;;12.50;6.67;;;-1.60;99.90;;;-1.10;45.78;94881.72;5059613;28;20190;-81
2021/03/24 02:51:57;;;;;;;12.03;6.63;;;-1.60;99.90;;;-1.10;46.17;94889.53;5075334;28;20168;-81
2021/03/24 02:54:51;;;;;;;12.53;6.93;;;-1.60;99.90;;;-1.25;45.71;94880.84;5044274;28;20192;-81
2021/03/24 02:57:27;;;;;;;14.77;7.43;;;-1.70;99.90;;;-1.32;46.08;94886.84;5059950;28;20199;-81
2021/03/24 02:59:55;;;;;;;11.43;7.27;;;-1.60;99.90;;;-1.29;46.04;94876.94;5042620;28;20177;-81
2021/03/24 03:02:28;;;;;;;13.00;7.07;;;-1.70;99.90;;;-1.29;46.04;94895.13;5058772;28;20185;-81
2021/03/24 03:05:26;;;;;;;12.50;6.83;;;-1.80;99.90;;;-1.31;46.48;94889.28;5063783;28;20168;-81
2021/03/24 03:08:15;;;;;;;10.93;6.90;;;-1.80;99.90;;;-1.25;46.13;94893.81;5023877;28;20181;-82
2021/03/24 03:11:08;;;;;;;13.77;6.83;;;-1.80;99.90;;;-1.17;46.17;94882.56;5058603;28;20203;-81
2021/03/24 03:13:58;;;;;;;14.13;7.40;;;-1.70;99.90;;;-1.18;46.14;94892.19;5054893;28;20632;-82
2021/03/24 03:16:44;;;;;;;12.37;7.40;;;-1.70;99.90;;;-1.17;46.95;94882.56;5042320;28;20180;-81
2021/03/24 03:19:20;;;;;;;11.03;6.80;;;-1.70;99.90;;;-1.19;46.37;94874.94;5052218;28;20160;-81
2021/03/24 03:21:54;;;;;;;11.53;7.23;;;-1.70;99.90;;;-1.11;46.58;94876.72;5042733;28;20199;-81
2021/03/24 03:24:23;;;;;;;14.60;7.23;;;-1.70;99.90;;;-1.21;46.14;94871.69;5059646;28;20222;-81
2021/03/24 03:26:54;;;;;;;12.37;6.90;;;-1.70;99.90;;;-1.24;46.71;94874.63;5043096;28;20274;-81
2021/03/24 03:29:24;;;;;;;15.30;7.03;;;-1.80;99.90;;;-1.29;46.85;94879.53;5059313;28;20172;-80
2021/03/24 03:31:52;;;;;;;12.13;8.13;;;-1.80;99.90;;;-1.35;46.75;94864.63;5043086;28;20181;-80
2021/03/24 03:34:24;;;;;;;13.00;7.47;;;-2.00;99.90;;;-1.26;46.90;94875.78;5041403;28;20577;-81
2021/03/24 03:36:54;;;;;;;10.67;7.33;;;-1.80;99.90;;;-1.27;46.60;94871.56;5041850;28;20235;-81
2021/03/24 03:39:27;;;;;;;15.67;7.57;;;-1.90;99.90;;;-1.37;46.58;94866.56;5029851;28;20179;-81
2021/03/24 03:41:57;;;;;;;12.80;7.13;;;-1.80;99.90;;;-1.28;46.81;94869.94;5061882;28;20175;-81
2021/03/24 03:44:28;;;;;;;14.23;6.97;;;-1.80;99.90;;;-1.37;46.77;94866.56;5076314;28;20682;-81
2021/03/24 03:47:27;;;;;;;12.33;6.80;;;-1.90;99.90;;;-1.37;47.35;94873.53;5076097;28;20168;-81
2021/03/24 03:49:53;;;;;;;13.73;7.07;;;-1.90;99.90;;;-1.38;47.03;94874.53;5052195;28;20197;-81
2021/03/24 03:53:06;;;;;;;14.07;7.20;;;-1.90;99.90;;;-1.44;46.82;94872.63;5041980;28;20191;-81
2021/03/24 03:56:05;;;;;;;12.13;7.53;;;-1.90;99.90;;;-1.50;47.01;94876.66;5061442;28;20627;-81
2021/03/24 03:59:07;;;;;;;11.10;6.67;;;-2.00;99.90;;;-1.58;47.43;94880.09;5042845;28;20179;-81
2021/03/24 04:01:41;;;;;;;11.80;6.50;;;-2.10;99.90;;;-1.56;46.97;94877.34;5039006;28;20168;-81
2021/03/24 04:04:35;;;;;;;13.27;7.23;;;-1.90;99.90;;;-1.51;47.34;94872.44;5040052;28;20200;-81
2021/03/24 04:07:18;;;;;;;12.30;7.33;;;-2.00;99.90;;;-1.47;47.18;94875.53;5046133;28;20191;-81
2021/03/24 04:09:46;;;;;;;13.80;7.07;;;-2.10;99.90;;;-1.48;47.52;94879.94;5060433;28;20156;-81
2021/03/24 04:12:17;;;;;;;13.77;7.10;;;-2.00;99.90;;;-1.54;47.37;94872.00;5054495;28;20188;-81
2021/03/24 04:14:53;;;;;;;17.00;7.87;;;-2.10;99.90;;;-1.42;47.84;94878.44;5052776;28;20200;-81
2021/03/24 04:17:32;;;;;;;13.90;8.43;;;-2.00;99.90;;;-1.40;47.66;94881.69;5040041;28;20176;-80
2021/03/24 04:20:00;;;;;;;12.63;6.90;;;-2.00;99.90;;;-1.49;47.44;94893.91;5030375;28;20211;-81
2021/03/24 04:22:34;;;;;;;13.57;7.47;;;-2.00;99.90;;;-1.47;47.67;94891.94;5032673;28;20169;-81
2021/03/24 04:25:02;;;;;;;11.27;7.20;;;-2.00;99.90;;;-1.57;47.39;94886.09;5052188;28;20594;-81
2021/03/24 04:27:34;;;;;;;13.23;7.00;;;-2.00;99.90;;;-1.64;48.04;94883.38;5022500;28;20187;-81
2021/03/24 04:30:09;;;;;;;9.67;6.30;;;-2.00;99.90;;;-1.60;47.70;94889.03;5032939;28;20189;-81
2021/03/24 04:32:37;;;;;;;13.23;7.20;;;-2.10;99.90;;;-1.72;48.04;94887.78;5065665;28;20194;-82
2021/03/24 04:35:07;;;;;;;12.03;6.33;;;-2.20;99.90;;;-1.82;47.84;94884.53;5048041;28;20185;-81
2021/03/24 04:37:57;;;;;;;12.60;6.57;;;-2.20;99.90;;;-1.77;48.08;94890.03;5042992;28;20262;-81
2021/03/24 04:40:53;;;;;;;12.33;6.70;;;-2.10;99.90;;;-1.74;47.99;94880.13;5038300;28;20180;-81
2021/03/24 04:43:57;;;;;;;12.80;6.30;;;-2.20;99.90;;;-1.70;48.26;94880.63;4967035;28;20182;-80
2021/03/24 04:46:44;;;;;;;12.83;6.20;;;-2.20;99.90;;;-1.66;47.90;94871.53;4943814;29;20226;-81
2021/03/24 04:49:22;;;;;;;15.23;6.80;;;-2.20;99.90;;;-1.66;48.19;94876.72;4946466;29;20206;-81
2021/03/24 04:51:51;;;;;;;14.43;6.70;;;-2.20;99.90;;;-1.73;48.32;94873.16;4928931;29;20225;-81
2021/03/24 04:54:34;;;;;;;14.87;7.40;;;-2.20;99.90;;;-1.70;48.57;94881.44;4959940;29;20219;-81
2021/03/24 04:57:07;;;;;;;11.53;7.23;;;-2.10;99.90;;;-1.66;48.66;94877.53;4959122;29;20190;-80
2021/03/24 04:59:40;;;;;;;12.40;7.17;;;-2.20;99.90;;;-1.62;48.42;94878.00;4934493;29;20185;-81
2021/03/24 05:02:52;;;;;;;12.50;7.43;;;-2.20;99.90;;;-1.66;48.41;94884.50;4920541;29;20249;-82
2021/03/24 05:05:24;;;;;;;17.20;8.07;;;-2.30;99.90;;;-1.61;48.55;94884.81;4917338;29;20196;-81
2021/03/24 05:08:39;;;;;;;19.30;8.20;;;-2.20;99.90;;;-1.52;48.63;94878.63;4921254;29;20206;-82
2021/03/24 05:11:29;;;;;;;16.07;7.27;;;-2.10;99.90;;;-1.56;48.78;94887.75;4872501;29;20209;-81
2021/03/24 05:14:26;;;;;;;13.27;7.30;;;-2.20;99.90;;;-1.48;48.84;94886.91;4887639;29;20209;-81
2021/03/24 05:17:28;;;;;;;21.87;8.83;;;-2.10;99.90;;;-1.47;48.77;94888.50;4886860;29;20242;-81
2021/03/24 05:20:28;;;;;;;10.70;6.60;;;-2.10;99.90;;;-1.61;48.95;94882.22;4863616;29;20584;-81
2021/03/24 05:22:55;;;;;;;11.70;6.83;;;-2.00;99.90;;;-1.63;48.76;94887.59;4913303;29;20205;-81
2021/03/24 05:25:41;;;;;;;15.27;7.60;;;-2.10;99.90;;;-1.58;49.09;94887.88;4874809;29;20225;-81
2021/03/24 05:28:17;;;;;;;13.13;7.47;;;-2.10;99.90;;;-1.52;48.97;94883.03;4905439;29;20211;-81
2021/03/24 05:30:55;;;;;;;14.67;7.40;;;-2.10;99.90;;;-1.48;49.09;94879.13;4905076;29;20266;-80
2021/03/24 05:33:33;;;;;;;15.63;6.90;;;-2.10;99.90;;;-1.56;49.25;94872.97;4885639;29;20331;-80
2021/03/24 05:36:05;;;;;;;11.50;6.90;;;-2.10;99.90;;;-1.53;49.48;94878.78;4906246;29;20584;-80
2021/03/24 05:38:49;;;;;;;19.43;7.20;;;-2.10;99.90;;;-1.38;49.70;94888.34;4909151;29;20185;-82
2021/03/24 05:41:43;;;;;;;14.93;7.53;;;-2.00;99.90;;;-1.32;49.34;94892.06;4909594;29;20181;-81
2021/03/24 05:45:04;;;;;;;17.37;7.23;;;-1.90;99.90;;;-1.20;49.08;94898.50;4937779;28;20614;-82
2021/03/24 05:48:43;;;;;;;12.97;6.47;;;-1.90;99.90;;;-1.21;49.26;94896.91;4964595;28;20218;-81
2021/03/24 05:51:46;;;;;;;13.10;7.20;;;-1.80;99.90;;;-1.14;49.54;94897.81;4966693;28;20195;-81
2021/03/24 05:54:47;;;;;;;11.43;6.90;;;-1.70;99.90;;;-1.06;49.73;94890.81;5000990;28;20210;-81
2021/03/24 05:58:11;;;;;;;14.60;6.93;;;-1.70;99.90;;;-1.01;49.82;94905.13;4967724;28;20178;-81
2021/03/24 06:01:20;;;;;;;12.40;6.70;;;-1.60;99.90;;;-0.89;49.96;94899.34;4955243;28;20193;-83
2021/03/24 06:04:10;;;;;;;14.80;7.77;;;-1.50;99.90;;;-0.73;49.98;94901.06;4963313;29;20640;-81
2021/03/24 06:07:02;;;;;;;13.43;7.60;;;-1.40;99.90;;;-0.69;50.12;94897.97;4957599;29;20725;-80
2021/03/24 06:10:25;;;;;;;12.13;6.73;;;-1.30;99.90;;;-0.53;49.96;94899.66;4963113;29;20616;-81
2021/03/24 06:13:52;;;;;;;13.13;6.70;;;-1.10;99.90;;;-0.47;50.04;94898.16;4962664;29;20679;-81
2021/03/24 06:16:55;;;;;;;12.83;6.60;;;-1.10;99.90;;;-0.43;50.28;94896.81;4957045;29;20226;-81
2021/03/24 06:19:46;;;;;;;13.57;7.13;;;-1.00;99.90;;;-0.37;50.21;94901.34;4935118;29;20187;-81
2021/03/24 06:23:09;;;;;;;11.17;6.17;;;-0.80;99.90;;;-0.11;50.51;94910.44;4950567;29;20189;-81
2021/03/24 06:25:56;;;;;;;14.07;6.93;;;-0.70;99.90;;;0.09;50.46;94902.94;4960770;29;20684;-82
2021/03/24 06:28:41;;;;;;;8.13;5.93;;;-0.50;99.90;;;0.09;50.25;94902.94;4952519;29;20268;-82
2021/03/24 06:31:54;;;;;;;13.03;6.70;;;-0.40;99.90;;;0.42;50.41;94908.69;4956340;28;20232;-79
2021/03/24 06:35:10;;;;;;;12.27;6.80;;;-0.20;99.90;;;0.63;51.14;94906.19;4959413;29;20249;-81
2021/03/24 06:38:03;;;;;;;12.33;6.40;;;0.00;99.90;;;0.88;51.41;94917.16;4963242;28;20186;-81
2021/03/24 06:41:00;;;;;;;10.67;6.47;;;0.20;99.90;;;1.18;50.82;94920.56;5068881;28;20172;-82
2021/03/24 06:44:07;;;;;;;15.27;6.73;;;0.50;99.90;;;1.80;51.39;94940.00;5043816;28;20184;-82
2021/03/24 06:47:28;;;;;;;10.83;5.77;;;1.00;99.90;;;4.37;51.76;95002.63;5060358;28;20184;-82
2021/03/24 06:50:34;;;;;;;13.77;5.90;;;3.20;99.90;;;8.71;52.36;95017.47;5042916;28;20188;-81
2021/03/24 06:53:26;;;;;;;11.90;5.00;;;7.40;99.90;;;11.48;51.89;95011.06;5045821;28;20207;-82
2021/03/24 06:56:11;;;;;;;10.33;5.17;;;11.00;99.90;;;14.70;52.12;94983.19;5050960;28;20208;-82
2021/03/24 06:59:34;;;;;;;9.70;4.93;;;14.30;99.90;;;16.64;52.24;94991.59;5062044;28;20247;-82
2021/03/24 07:02:41;;;;;;;7.00;5.00;;;16.80;92.30;;;18.42;51.96;94985.34;5048078;28;20190;-82
2021/03/24 07:05:44;;;;;;;7.20;4.80;;;19.00;81.10;;;17.44;51.70;94845.56;5047516;28;20326;-83
2021/03/24 07:08:44;;;;;;;7.23;4.70;;;19.70;70.30;;;18.15;51.47;95071.00;5047026;28;20172;-83
2021/03/24 07:11:39;;;;;;;6.77;4.53;;;19.20;72.30;;;20.69;51.15;94972.06;5041925;28;20243;-83
2021/03/24 07:14:36;;;;;;;7.30;4.53;;;21.90;65.50;;;21.56;50.73;94944.78;5049374;28;20192;-83
2021/03/24 07:17:40;;;;;;;5.87;3.77;;;23.50;59.20;;;21.99;50.39;94924.28;5025915;28;20537;-83
2021/03/24 07:24:27;;;;;;;5.17;3.77;;;24.20;55.00;;;22.27;50.09;94879.75;5016087;28;20192;-83
2021/03/24 07:27:05;;;;;;;5.93;4.07;;;24.60;53.00;;;23.13;49.48;94906.94;4980376;28;20729;-83
2021/03/24 07:30:06;;;;;;;4.57;3.30;;;25.60;53.80;;;20.88;49.14;94951.19;4977904;28;20194;-83
2021/03/24 07:32:50;;;;;;;4.97;3.40;;;24.00;53.80;;;23.02;48.77;94986.81;4998658;28;20256;-83
2021/03/24 07:35:42;;;;;;;3.37;2.93;;;25.10;52.30;;;23.39;48.55;94913.13;4996955;28;20208;-83
2021/03/24 07:38:42;;;;;;;4.80;3.00;;;25.90;50.00;;;23.66;48.48;94919.34;4996329;28;20719;-83
2021/03/24 07:41:43;;;;;;;4.60;2.23;;;26.70;49.10;;;24.60;48.16;94953.47;5005955;28;20195;-83
2021/03/24 07:44:56;;;;;;;3.27;2.37;;;27.60;47.40;;;25.58;47.67;94950.31;4983265;28;20196;-83
2021/03/24 07:47:56;;;;;;;6.20;2.77;;;28.50;45.30;;;24.53;47.27;94842.84;5000265;28;20547;-83
2021/03/24 07:50:36;;;;;;;4.07;2.60;;;27.90;44.80;;;24.28;47.14;94862.75;4999611;28;20203;-83
2021/03/24 07:53:30;;;;;;;4.83;2.60;;;27.80;44.90;;;23.87;47.28;94864.16;4999799;28;20180;-84
2021/03/24 08:00:17;;;;;;;5.67;4.63;;;29.30;44.40;;;26.78;45.76;94947.09;4992349;28;20204;-83
2021/03/24 08:03:14;;;;;;;7.83;4.93;;;30.30;43.70;;;27.95;45.64;94969.66;4999169;28;20671;-84
2021/03/24 08:06:08;;;;;;;5.10;3.80;;;31.80;42.40;;;29.33;45.12;95008.69;4989668;28;20202;-84
2021/03/24 08:09:17;;;;;;;4.47;4.03;;;32.90;41.10;;;29.04;44.75;94966.25;4988099;28;20259;-84
2021/03/24 08:12:25;;;;;;;6.60;4.80;;;33.00;40.00;;;26.15;44.20;94997.41;4968233;28;20432;-84
2021/03/24 08:15:24;;;;;;;8.63;4.67;;;32.20;40.00;;;27.89;43.53;94993.66;4976234;28;20170;-84
2021/03/24 08:18:30;;;;;;;6.13;4.13;;;32.00;40.60;;;28.65;43.53;94946.19;4996229;28;20185;-82
2021/03/24 08:21:34;;;;;;;5.67;3.67;;;32.60;39.50;;;29.15;43.09;94904.47;4973524;28;20214;-83
2021/03/24 08:24:24;;;;;;;5.57;4.10;;;33.40;38.50;;;28.28;42.69;94833.81;5002396;28;20217;-83
2021/03/24 08:27:00;;;;;;;4.70;3.40;;;32.90;39.50;;;29.26;42.23;94875.47;4981701;28;20235;-82
2021/03/24 08:30:05;;;;;;;6.77;3.70;;;33.40;38.70;;;27.88;42.20;94989.31;4963783;28;20707;-83
2021/03/24 08:32:56;;;;;;;4.80;3.30;;;31.80;40.20;;;27.96;42.16;94753.19;5001462;28;20182;-87
2021/03/24 08:36:05;;;;;;;5.20;3.20;;;32.40;38.40;;;29.21;41.02;95023.19;4982993;28;20279;-81
2021/03/24 08:39:20;;;;;;;4.10;3.13;;;33.10;38.70;;;29.58;40.89;94979.19;4962700;28;20194;-83
2021/03/24 08:42:40;;;;;;;4.90;3.50;;;33.00;39.00;;;31.84;40.61;94975.69;4970287;28;20257;-82
2021/03/24 08:45:28;;;;;;;8.47;3.63;;;35.20;38.20;;;31.60;40.11;94898.63;4970658;28;20242;-82
2021/03/24 08:48:06;;;;;;;5.13;3.43;;;35.60;37.90;;;31.34;40.17;94913.91;4955679;29;20186;-80
2021/03/24 08:50:48;;;;;;;6.73;3.90;;;35.60;37.50;;;30.71;39.52;94834.34;4951942;28;20697;-81
2021/03/24 08:54:01;;;;;;;6.60;3.90;;;35.00;37.30;;;31.48;39.25;94977.16;4955658;29;20573;-80
2021/03/24 08:56:53;;;;;;;6.40;3.97;;;34.90;37.40;;;30.42;39.35;94868.69;4947763;28;20630;-83
2021/03/24 08:59:42;;;;;;;6.80;4.37;;;34.80;36.90;;;31.80;38.16;94919.19;4959904;28;20195;-82
2021/03/24 09:03:06;;;;;;;5.63;4.50;;;35.40;35.80;;;29.39;37.82;94960.81;4964725;28;20940;-82
2021/03/24 09:06:03;;;;;;;5.83;4.57;;;35.10;36.90;;;30.88;37.78;94923.41;4960776;28;20560;-82
2021/03/24 09:09:39;;;;;;;6.60;4.23;;;35.40;36.00;;;31.07;37.45;94914.31;4948062;29;20207;-83
2021/03/24 09:13:04;;;;;;;4.93;4.00;;;35.80;36.60;;;31.38;36.78;94952.34;4956119;28;20166;-83
2021/03/24 09:15:44;;;;;;;6.30;4.43;;;35.70;36.00;;;31.64;36.64;94904.91;5016979;28;20192;-85
2021/03/24 09:18:37;;;;;;;6.40;4.70;;;35.80;35.90;;;31.61;36.43;94930.34;5059292;28;20262;-83
2021/03/24 09:21:43;;;;;;;6.00;4.40;;;36.10;36.40;;;32.62;35.92;94964.81;5042733;28;20370;-82
2021/03/24 09:24:56;;;;;;;5.80;4.30;;;36.50;36.30;;;32.26;35.68;94955.44;5044765;28;21000;-82
2021/03/24 09:31:26;;;;;;;5.00;4.47;;;38.10;35.10;;;33.78;34.66;94978.66;5058156;28;20180;-82
2021/03/24 09:34:29;;;;;;;5.93;4.07;;;38.70;34.10;;;32.75;34.36;94815.84;5033109;28;20246;-81
2021/03/24 09:37:11;;;;;;;7.97;4.75;;;38.50;35.00;;;31.88;34.61;94965.56;5035921;28;20635;-81
2021/03/24 09:40:01;;;;;;;6.93;4.85;;;36.10;37.30;;;31.53;33.96;94910.25;5038760;28;20271;-81
2021/03/24 09:42:48;;;;;;;6.33;5.00;;;35.70;37.50;;;31.21;33.51;95008.47;5059026;28;20238;-81
2021/03/24 09:45:22;;;;;;;6.47;5.00;;;35.20;38.00;;;31.65;33.39;94859.88;5034838;28;20201;-81
2021/03/24 09:48:10;;;;;;;6.37;5.10;;;35.30;37.10;;;32.49;33.55;94901.13;5039203;28;20192;-81
2021/03/24 09:50:59;;;;;;;6.20;4.50;;;35.80;37.50;;;32.69;33.60;94866.00;5050096;28;20173;-82
2021/03/24 09:54:15;;;;;;;7.43;4.43;;;36.70;36.40;;;34.28;32.95;94932.88;5055909;28;20192;-81
2021/03/24 09:57:16;;;;;;;5.47;4.50;;;38.10;36.20;;;32.46;32.93;94880.72;4964387;28;20198;-81
2021/03/24 10:00:04;;;;;;;6.87;4.70;;;37.10;35.60;;;33.28;32.25;94941.78;4969642;28;20713;-83
2021/03/24 10:02:37;;;;;;;5.83;4.83;;;37.40;36.00;;;32.68;32.29;94815.00;4985264;28;20186;-80
2021/03/24 10:05:13;;;;;;;6.20;4.67;;;36.90;36.50;;;32.40;32.13;94830.06;4968797;28;20563;-81
2021/03/24 10:08:00;;;;;;;6.73;4.80;;;36.70;36.50;;;32.23;32.20;94847.19;4980943;28;20214;-79
2021/03/24 10:10:34;;;;;;;5.57;4.90;;;36.60;36.90;;;32.61;31.56;94889.88;4981069;28;20230;-82
2021/03/24 10:13:24;;;;;;;5.13;4.63;;;37.10;37.30;;;33.09;31.57;94819.16;4964237;28;20209;-80
2021/03/24 10:16:13;;;;;;;5.60;4.97;;;37.40;35.60;;;33.28;31.12;94821.63;4967404;28;20198;-79
2021/03/24 10:19:25;;;;;;;6.63;4.83;;;37.00;36.20;;;33.42;31.34;94931.69;4976884;28;20225;-81
2021/03/24 10:22:32;;;;;;;5.37;4.43;;;37.30;36.60;;;32.83;31.09;94924.59;4982131;28;20183;-79
2021/03/24 10:25:14;;;;;;;5.40;4.83;;;37.40;36.50;;;32.72;30.54;94833.06;4915865;29;20359;-80
2021/03/24 10:27:48;;;;;;;6.33;4.73;;;37.20;36.40;;;33.21;30.68;94873.81;4920171;29;20199;-81
2021/03/24 10:30:14;;;;;;;8.33;4.83;;;37.00;36.80;;;32.89;30.51;94872.81;4948077;28;20195;-81
2021/03/24 10:33:02;;;;;;;6.70;5.33;;;36.80;37.00;;;33.91;29.94;94905.59;4968082;28;20271;-81
2021/03/24 10:35:56;;;;;;;6.03;4.93;;;38.00;36.00;;;33.84;30.46;94840.34;4970753;28;20206;-80
2021/03/24 10:38:32;;;;;;;5.70;4.70;;;38.20;35.70;;;34.00;30.15;94845.47;4985388;28;20189;-80
2021/03/24 10:41:26;;;;;;;6.93;4.97;;;38.40;36.40;;;34.45;29.61;94744.81;5016922;28;20354;-81
2021/03/24 10:44:28;;;;;;;5.83;4.63;;;39.60;35.70;;;33.97;29.64;94893.81;5016920;28;20189;-81
2021/03/24 10:47:26;;;;;;;5.75;5.00;;;38.10;36.20;;;35.22;29.27;94933.34;4984350;28;20193;-83
2021/03/24 10:50:39;;;;;;;6.60;4.90;;;39.50;34.80;;;34.87;28.88;94921.13;5001422;28;20209;-81
2021/03/24 10:53:25;;;;;;;4.95;4.40;;;39.70;34.60;;;35.60;28.65;94940.75;4997500;28;20193;-80
2021/03/24 10:56:35;;;;;;;5.28;4.60;;;40.20;35.30;;;35.40;28.37;94934.06;4988288;28;20755;-81
2021/03/24 10:59:42;;;;;;;5.47;4.97;;;39.90;35.10;;;34.68;28.13;94956.56;4942835;29;20264;-81
2021/03/24 11:02:31;;;;;;;10.63;5.13;;;39.00;34.70;;;34.57;28.02;94944.69;4956522;28;20198;-81
2021/03/24 11:05:14;;;;;;;5.63;5.03;;;38.00;35.20;;;34.95;28.33;94822.69;4968977;28;20337;-81
2021/03/24 11:07:53;;;;;;;5.53;5.03;;;38.70;35.30;;;35.32;27.88;94825.75;4940190;28;20178;-81
2021/03/24 11:10:47;;;;;;;6.97;5.35;;;39.40;35.30;;;33.63;28.01;94848.50;4961206;28;20193;-81
2021/03/24 11:13:37;;;;;;;6.93;5.32;;;37.70;35.50;;;34.33;27.39;94891.94;4935165;29;20219;-81
2021/03/24 11:16:13;;;;;;;6.35;4.97;;;37.70;36.00;;;34.54;27.24;94830.59;4942890;29;20241;-82
2021/03/24 11:19:40;;;;;;;10.63;5.68;;;37.90;35.80;;;34.72;27.15;94871.94;4932407;29;20232;-82
2021/03/24 11:22:20;;;;;;;8.90;5.28;;;37.90;35.70;;;35.22;26.68;94847.84;4913324;29;20203;-86
2021/03/24 11:25:22;;;;;;;6.43;4.65;;;38.40;35.80;;;35.86;26.79;94931.22;4924724;29;20626;-81
2021/03/24 11:27:53;;;;;;;6.80;5.13;;;38.50;35.50;;;36.23;26.63;94735.34;4931555;29;20215;-81
2021/03/24 11:30:34;;;;;;;5.85;5.15;;;39.40;34.80;;;35.42;26.42;94761.50;4907545;29;20195;-81
2021/03/24 11:33:43;;;;;;;7.40;5.45;;;39.80;34.40;;;36.05;26.25;94877.47;4934147;28;20314;-81
2021/03/24 11:36:30;;;;;;;7.07;5.17;;;39.80;34.90;;;35.06;26.16;94924.63;4955238;28;20258;-81
2021/03/24 11:39:04;;;;;;;8.70;5.40;;;38.70;35.70;;;35.89;25.67;94844.84;5010239;28;20225;-82
2021/03/24 11:41:34;;;;;;;8.93;5.57;;;39.40;35.00;;;35.76;25.65;94786.53;4980154;28;20185;-82
2021/03/24 11:44:12;;;;;;;6.80;5.03;;;39.10;34.90;;;35.96;25.84;94740.66;5012005;28;20224;-81
2021/03/24 11:46:48;;;;;;;6.47;4.97;;;39.70;34.70;;;36.69;25.60;94825.34;5011960;28;20185;-81
2021/03/24 11:49:47;;;;;;;6.00;5.40;;;40.10;34.70;;;37.44;25.45;94817.88;5018806;28;20203;-80
2021/03/24 11:52:24;;;;;;;7.82;5.47;;;40.90;35.20;;;36.25;25.33;94806.75;5040574;28;20192;-80
2021/03/24 11:55:31;;;;;;;6.20;5.20;;;39.70;34.40;;;36.17;25.20;94839.16;5040401;28;20541;-82